sensor_id;sensor_type;location;lat;lon;timestamp;pressure;altitude;pressure_sealevel;temperature;humidity
57068;BME280;43391;47.448;18.904;2023-05-12T00:02:08;99747.13;;;10.13;100.00
57068;BME280;43391;47.448;18.904;2023-05-12T00:04:33;99748.06;;;10.12;100.00
57068;BME280;43391;47.448;18.904;2023-05-12T00:07:00;99754.91;;;10.13;100.00
57068;BME280;43391;47.448;18.904;2023-05-12T00:09:25;99743.91;;;10.07;100.00
57068;BME280;43391;47.448;18.904;2023-05-12T00:11:51;99745.59;;;10.08;100.00
57068;BME280;43391;47.448;18.904;2023-05-12T00:14:16;99741.19;;;10.10;100.00
57068;BME280;43391;47.448;18.904;2023-05-12T00:16:42;99744.78;;;10.08;100.00
57068;BME280;43391;47.448;18.904;2023-05-12T00:19:07;99737.97;;;10.05;100.00
57068;BME280;43391;47.448;18.904;2023-05-12T00:21:33;99737.28;;;10.02;100.00
57068;BME280;43391;47.448;18.904;2023-05-12T00:23:59;99741.53;;;10.03;100.00
57068;BME280;43391;47.448;18.904;2023-05-12T00:26:24;99733.75;;;10.03;100.00
57068;BME280;43391;47.448;18.904;2023-05-12T00:28:49;99731.22;;;10.01;100.00
57068;BME280;43391;47.448;18.904;2023-05-12T00:31:15;99729.56;;;10.00;100.00
57068;BME280;43391;47.448;18.904;2023-05-12T00:33:41;99724.44;;;9.99;100.00
57068;BME280;43391;47.448;18.904;2023-05-12T00:36:07;99729.75;;;9.95;100.00
57068;BME280;43391;47.448;18.904;2023-05-12T00:38:32;99726.41;;;9.93;100.00
57068;BME280;43391;47.448;18.904;2023-05-12T00:40:59;99727.25;;;9.94;100.00
57068;BME280;43391;47.448;18.904;2023-05-12T00:43:25;99730.72;;;9.93;100.00
57068;BME280;43391;47.448;18.904;2023-05-12T00:45:51;99722.88;;;9.94;100.00
57068;BME280;43391;47.448;18.904;2023-05-12T00:48:17;99728.13;;;9.93;100.00
57068;BME280;43391;47.448;18.904;2023-05-12T00:50:42;99722.13;;;9.92;100.00
57068;BME280;43391;47.448;18.904;2023-05-12T00:53:08;99725.47;;;9.94;100.00
57068;BME280;43391;47.448;18.904;2023-05-12T00:55:34;99727.09;;;9.97;100.00
57068;BME280;43391;47.448;18.904;2023-05-12T00:58:01;99721.78;;;10.00;100.00
57068;BME280;43391;47.448;18.904;2023-05-12T01:00:26;99723.53;;;10.00;100.00
57068;BME280;43391;47.448;18.904;2023-05-12T01:02:51;99726.91;;;10.02;100.00
57068;BME280;43391;47.448;18.904;2023-05-12T01:05:17;99719.94;;;10.02;100.00
57068;BME280;43391;47.448;18.904;2023-05-12T01:07:43;99720.88;;;10.01;100.00
57068;BME280;43391;47.448;18.904;2023-05-12T01:10:20;99720.63;;;10.06;100.00
57068;BME280;43391;47.448;18.904;2023-05-12T01:12:45;99718.03;;;10.06;100.00
57068;BME280;43391;47.448;18.904;2023-05-12T01:15:11;99718.91;;;10.06;100.00
57068;BME280;43391;47.448;18.904;2023-05-12T01:17:39;99720.56;;;10.07;100.00
57068;BME280;43391;47.448;18.904;2023-05-12T01:20:07;99721.56;;;10.05;100.00
57068;BME280;43391;47.448;18.904;2023-05-12T01:22:54;99719.88;;;10.04;100.00
57068;BME280;43391;47.448;18.904;2023-05-12T01:25:22;99717.97;;;10.07;100.00
57068;BME280;43391;47.448;18.904;2023-05-12T01:27:49;99721.44;;;10.08;100.00
57068;BME280;43391;47.448;18.904;2023-05-12T01:30:16;99719.75;;;10.07;100.00
57068;BME280;43391;47.448;18.904;2023-05-12T01:32:42;99713.72;;;10.06;100.00
57068;BME280;43391;47.448;18.904;2023-05-12T01:35:08;99731.09;;;10.04;100.00
57068;BME280;43391;47.448;18.904;2023-05-12T01:37:34;99726.75;;;10.05;100.00
57068;BME280;43391;47.448;18.904;2023-05-12T01:39:59;99730.25;;;10.04;100.00
57068;BME280;43391;47.448;18.904;2023-05-12T01:42:25;99730.66;;;9.94;100.00
57068;BME280;43391;47.448;18.904;2023-05-12T01:44:50;99730.81;;;9.91;100.00
57068;BME280;43391;47.448;18.904;2023-05-12T01:47:15;99734.19;;;9.93;100.00
57068;BME280;43391;47.448;18.904;2023-05-12T01:49:41;99730.47;;;9.99;100.00
57068;BME280;43391;47.448;18.904;2023-05-12T01:52:06;99726.41;;;9.93;100.00
57068;BME280;43391;47.448;18.904;2023-05-12T01:54:32;99733.31;;;9.93;100.00
57068;BME280;43391;47.448;18.904;2023-05-12T01:56:57;99735.72;;;9.97;100.00
57068;BME280;43391;47.448;18.904;2023-05-12T01:59:22;99734.47;;;9.87;100.00
57068;BME280;43391;47.448;18.904;2023-05-12T02:01:48;99738.59;;;9.91;100.00
57068;BME280;43391;47.448;18.904;2023-05-12T02:04:13;99742.03;;;9.92;100.00
57068;BME280;43391;47.448;18.904;2023-05-12T02:06:39;99744.56;;;9.93;100.00
57068;BME280;43391;47.448;18.904;2023-05-12T02:09:04;99740.97;;;9.96;100.00
57068;BME280;43391;47.448;18.904;2023-05-12T02:11:29;99739.25;;;9.96;100.00
57068;BME280;43391;47.448;18.904;2023-05-12T02:13:55;99738.31;;;9.97;100.00
57068;BME280;43391;47.448;18.904;2023-05-12T02:16:21;99740.91;;;9.97;100.00
57068;BME280;43391;47.448;18.904;2023-05-12T02:18:46;99736.66;;;9.96;100.00
57068;BME280;43391;47.448;18.904;2023-05-12T02:21:12;99744.25;;;10.00;100.00
57068;BME280;43391;47.448;18.904;2023-05-12T02:23:37;99748.53;;;10.01;100.00
57068;BME280;43391;47.448;18.904;2023-05-12T02:26:03;99742.47;;;10.02;100.00
57068;BME280;43391;47.448;18.904;2023-05-12T02:28:28;99747.66;;;10.02;100.00
57068;BME280;43391;47.448;18.904;2023-05-12T02:30:53;99740.13;;;9.95;100.00
57068;BME280;43391;47.448;18.904;2023-05-12T02:33:20;99745.47;;;9.92;100.00
57068;BME280;43391;47.448;18.904;2023-05-12T02:35:45;99750.44;;;9.97;100.00
57068;BME280;43391;47.448;18.904;2023-05-12T02:38:11;99747.09;;;9.95;100.00
57068;BME280;43391;47.448;18.904;2023-05-12T02:40:37;99743.69;;;9.93;100.00
57068;BME280;43391;47.448;18.904;2023-05-12T02:43:03;99743.91;;;9.88;100.00
57068;BME280;43391;47.448;18.904;2023-05-12T02:45:28;99751.00;;;9.84;100.00
57068;BME280;43391;47.448;18.904;2023-05-12T02:47:54;99742.25;;;9.87;100.00
57068;BME280;43391;47.448;18.904;2023-05-12T02:50:19;99742.38;;;9.84;100.00
57068;BME280;43391;47.448;18.904;2023-05-12T02:52:48;99743.34;;;9.81;100.00
57068;BME280;43391;47.448;18.904;2023-05-12T02:55:13;99740.75;;;9.81;100.00
57068;BME280;43391;47.448;18.904;2023-05-12T02:57:39;99739.09;;;9.80;100.00
57068;BME280;43391;47.448;18.904;2023-05-12T03:00:05;99749.50;;;9.79;100.00
57068;BME280;43391;47.448;18.904;2023-05-12T03:02:35;99747.91;;;9.76;100.00
57068;BME280;43391;47.448;18.904;2023-05-12T03:05:01;99750.31;;;9.81;100.00
57068;BME280;43391;47.448;18.904;2023-05-12T03:07:27;99746.72;;;9.83;100.00
57068;BME280;43391;47.448;18.904;2023-05-12T03:09:53;99748.47;;;9.83;100.00
57068;BME280;43391;47.448;18.904;2023-05-12T03:12:18;99754.44;;;9.85;100.00
57068;BME280;43391;47.448;18.904;2023-05-12T03:14:43;99750.16;;;9.84;100.00
57068;BME280;43391;47.448;18.904;2023-05-12T03:17:09;99744.06;;;9.85;100.00
57068;BME280;43391;47.448;18.904;2023-05-12T03:19:34;99746.78;;;9.82;100.00
57068;BME280;43391;47.448;18.904;2023-05-12T03:22:00;99747.72;;;9.81;100.00
57068;BME280;43391;47.448;18.904;2023-05-12T03:24:26;99747.72;;;9.81;100.00
57068;BME280;43391;47.448;18.904;2023-05-12T03:26:51;99746.84;;;9.80;100.00
57068;BME280;43391;47.448;18.904;2023-05-12T03:29:17;99739.88;;;9.82;100.00
57068;BME280;43391;47.448;18.904;2023-05-12T03:31:42;99740.06;;;9.78;100.00
57068;BME280;43391;47.448;18.904;2023-05-12T03:34:07;99751.22;;;9.80;100.00
57068;BME280;43391;47.448;18.904;2023-05-12T03:36:33;99753.88;;;9.78;100.00
57068;BME280;43391;47.448;18.904;2023-05-12T03:38:58;99743.63;;;9.75;100.00
57068;BME280;43391;47.448;18.904;2023-05-12T03:41:23;99749.31;;;9.83;100.00
57068;BME280;43391;47.448;18.904;2023-05-12T03:43:49;99743.34;;;9.81;100.00
57068;BME280;43391;47.448;18.904;2023-05-12T03:46:14;99755.44;;;9.82;100.00
57068;BME280;43391;47.448;18.904;2023-05-12T03:48:40;99754.44;;;9.85;100.00
57068;BME280;43391;47.448;18.904;2023-05-12T03:51:05;99754.00;;;9.75;100.00
57068;BME280;43391;47.448;18.904;2023-05-12T03:53:31;99758.13;;;9.79;100.00
57068;BME280;43391;47.448;18.904;2023-05-12T03:55:56;99755.44;;;9.82;100.00
57068;BME280;43391;47.448;18.904;2023-05-12T03:58:22;99760.63;;;9.82;100.00
57068;BME280;43391;47.448;18.904;2023-05-12T04:00:48;99765.50;;;9.69;100.00
57068;BME280;43391;47.448;18.904;2023-05-12T04:03:17;99765.03;;;9.60;100.00
57068;BME280;43391;47.448;18.904;2023-05-12T04:05:42;99764.47;;;9.53;100.00
57068;BME280;43391;47.448;18.904;2023-05-12T04:08:08;99762.72;;;9.53;100.00
57068;BME280;43391;47.448;18.904;2023-05-12T04:10:40;99767.94;;;9.73;100.00
57068;BME280;43391;47.448;18.904;2023-05-12T04:13:06;99766.63;;;9.83;100.00
57068;BME280;43391;47.448;18.904;2023-05-12T04:15:33;99763.84;;;9.88;100.00
57068;BME280;43391;47.448;18.904;2023-05-12T04:17:59;99762.97;;;9.87;100.00
57068;BME280;43391;47.448;18.904;2023-05-12T04:20:24;99762.28;;;9.83;100.00
57068;BME280;43391;47.448;18.904;2023-05-12T04:22:50;99774.28;;;9.86;100.00
57068;BME280;43391;47.448;18.904;2023-05-12T04:25:15;99773.41;;;9.86;100.00
57068;BME280;43391;47.448;18.904;2023-05-12T04:27:41;99769.84;;;9.88;100.00
57068;BME280;43391;47.448;18.904;2023-05-12T04:30:07;99774.91;;;9.91;100.00
57068;BME280;43391;47.448;18.904;2023-05-12T04:32:32;99769.91;;;9.87;100.00
57068;BME280;43391;47.448;18.904;2023-05-12T04:34:57;99769.09;;;9.86;100.00
57068;BME280;43391;47.448;18.904;2023-05-12T04:37:23;99771.75;;;9.84;100.00
57068;BME280;43391;47.448;18.904;2023-05-12T04:39:48;99776.66;;;9.91;100.00
57068;BME280;43391;47.448;18.904;2023-05-12T04:42:14;99773.00;;;9.95;100.00
57068;BME280;43391;47.448;18.904;2023-05-12T04:44:39;99774.75;;;9.94;100.00
57068;BME280;43391;47.448;18.904;2023-05-12T04:47:04;99779.03;;;9.95;100.00
57068;BME280;43391;47.448;18.904;2023-05-12T04:49:30;99771.97;;;9.99;100.00
57068;BME280;43391;47.448;18.904;2023-05-12T04:51:55;99775.44;;;9.98;100.00
57068;BME280;43391;47.448;18.904;2023-05-12T04:54:21;99782.53;;;9.94;100.00
57068;BME280;43391;47.448;18.904;2023-05-12T04:56:46;99779.94;;;9.94;100.00
57068;BME280;43391;47.448;18.904;2023-05-12T04:59:12;99776.38;;;9.97;100.00
57068;BME280;43391;47.448;18.904;2023-05-12T05:01:40;99777.16;;;9.99;100.00
57068;BME280;43391;47.448;18.904;2023-05-12T05:04:06;99781.63;;;9.95;100.00
57068;BME280;43391;47.448;18.904;2023-05-12T05:06:32;99780.72;;;9.96;100.00
57068;BME280;43391;47.448;18.904;2023-05-12T05:08:57;99786.56;;;10.02;100.00
57068;BME280;43391;47.448;18.904;2023-05-12T05:11:23;99787.44;;;10.01;100.00
57068;BME280;43391;47.448;18.904;2023-05-12T05:13:48;99782.81;;;10.07;100.00
57068;BME280;43391;47.448;18.904;2023-05-12T05:16:13;99783.69;;;10.08;100.00
57068;BME280;43391;47.448;18.904;2023-05-12T05:18:39;99790.53;;;10.09;100.00
57068;BME280;43391;47.448;18.904;2023-05-12T05:21:10;99786.34;;;10.06;100.00
57068;BME280;43391;47.448;18.904;2023-05-12T05:23:36;99791.59;;;10.05;100.00
57068;BME280;43391;47.448;18.904;2023-05-12T05:26:01;99788.16;;;10.04;100.00
57068;BME280;43391;47.448;18.904;2023-05-12T05:28:26;99791.09;;;10.16;100.00
57068;BME280;43391;47.448;18.904;2023-05-12T05:30:52;99793.69;;;10.16;100.00
57068;BME280;43391;47.448;18.904;2023-05-12T05:33:17;99785.69;;;10.20;100.00
57068;BME280;43391;47.448;18.904;2023-05-12T05:35:43;99796.69;;;10.26;100.00
57068;BME280;43391;47.448;18.904;2023-05-12T05:38:08;99791.22;;;10.32;100.00
57068;BME280;43391;47.448;18.904;2023-05-12T05:40:34;99789.34;;;10.35;100.00
57068;BME280;43391;47.448;18.904;2023-05-12T05:42:59;99797.91;;;10.37;100.00
57068;BME280;43391;47.448;18.904;2023-05-12T05:45:24;99801.53;;;10.33;100.00
57068;BME280;43391;47.448;18.904;2023-05-12T05:47:50;99805.75;;;10.36;100.00
57068;BME280;43391;47.448;18.904;2023-05-12T05:50:17;99803.09;;;10.37;100.00
57068;BME280;43391;47.448;18.904;2023-05-12T05:52:42;99805.41;;;10.44;100.00
57068;BME280;43391;47.448;18.904;2023-05-12T05:55:08;99807.81;;;10.48;100.00
57068;BME280;43391;47.448;18.904;2023-05-12T05:57:34;99804.44;;;10.46;100.00
57068;BME280;43391;47.448;18.904;2023-05-12T05:59:59;99801.41;;;10.36;100.00
57068;BME280;43391;47.448;18.904;2023-05-12T06:02:25;99809.94;;;10.39;100.00
57068;BME280;43391;47.448;18.904;2023-05-12T06:04:50;99811.84;;;10.35;100.00
57068;BME280;43391;47.448;18.904;2023-05-12T06:07:16;99809.03;;;10.40;100.00
57068;BME280;43391;47.448;18.904;2023-05-12T06:09:42;99816.69;;;10.43;100.00
57068;BME280;43391;47.448;18.904;2023-05-12T06:12:07;99812.53;;;10.39;100.00
57068;BME280;43391;47.448;18.904;2023-05-12T06:14:33;99815.06;;;10.40;100.00
57068;BME280;43391;47.448;18.904;2023-05-12T06:16:58;99813.47;;;10.37;100.00
57068;BME280;43391;47.448;18.904;2023-05-12T06:19:23;99823.16;;;10.34;100.00
57068;BME280;43391;47.448;18.904;2023-05-12T06:21:49;99814.50;;;10.33;100.00
57068;BME280;43391;47.448;18.904;2023-05-12T06:24:16;99818.59;;;10.39;100.00
57068;BME280;43391;47.448;18.904;2023-05-12T06:26:42;99814.97;;;10.43;100.00
57068;BME280;43391;47.448;18.904;2023-05-12T06:29:07;99814.75;;;10.48;100.00
57068;BME280;43391;47.448;18.904;2023-05-12T06:31:33;99817.28;;;10.49;100.00
57068;BME280;43391;47.448;18.904;2023-05-12T06:33:59;99815.44;;;10.52;100.00
57068;BME280;43391;47.448;18.904;2023-05-12T06:36:24;99814.63;;;10.51;100.00
57068;BME280;43391;47.448;18.904;2023-05-12T06:38:49;99818.91;;;10.52;100.00
57068;BME280;43391;47.448;18.904;2023-05-12T06:41:16;99814.63;;;10.51;100.00
57068;BME280;43391;47.448;18.904;2023-05-12T06:43:41;99817.97;;;10.53;100.00
57068;BME280;43391;47.448;18.904;2023-05-12T06:46:07;99822.06;;;10.59;100.00
57068;BME280;43391;47.448;18.904;2023-05-12T06:48:33;99817.75;;;10.58;100.00
57068;BME280;43391;47.448;18.904;2023-05-12T06:50:58;99819.44;;;10.59;100.00
57068;BME280;43391;47.448;18.904;2023-05-12T06:53:23;99816.69;;;10.62;100.00
57068;BME280;43391;47.448;18.904;2023-05-12T06:55:49;99810.59;;;10.63;100.00
57068;BME280;43391;47.448;18.904;2023-05-12T06:58:15;99815.47;;;10.69;100.00
57068;BME280;43391;47.448;18.904;2023-05-12T07:00:40;99811.06;;;10.71;100.00
57068;BME280;43391;47.448;18.904;2023-05-12T07:03:06;99817.66;;;10.79;100.00
57068;BME280;43391;47.448;18.904;2023-05-12T07:05:34;99813.00;;;10.85;100.00
57068;BME280;43391;47.448;18.904;2023-05-12T07:08:00;99818.81;;;10.90;100.00
57068;BME280;43391;47.448;18.904;2023-05-12T07:10:25;99815.28;;;10.92;100.00
57068;BME280;43391;47.448;18.904;2023-05-12T07:12:50;99821.47;;;10.89;100.00
57068;BME280;43391;47.448;18.904;2023-05-12T07:15:16;99820.56;;;10.90;100.00
57068;BME280;43391;47.448;18.904;2023-05-12T07:17:41;99818.06;;;10.88;100.00
57068;BME280;43391;47.448;18.904;2023-05-12T07:20:07;99828.22;;;10.93;100.00
57068;BME280;43391;47.448;18.904;2023-05-12T07:22:34;99819.94;;;10.85;100.00
57068;BME280;43391;47.448;18.904;2023-05-12T07:24:59;99821.72;;;10.84;100.00
57068;BME280;43391;47.448;18.904;2023-05-12T07:27:25;99813.13;;;10.82;100.00
57068;BME280;43391;47.448;18.904;2023-05-12T07:29:50;99820.78;;;10.85;100.00
57068;BME280;43391;47.448;18.904;2023-05-12T07:32:16;99820.72;;;10.87;100.00
57068;BME280;43391;47.448;18.904;2023-05-12T07:34:41;99818.94;;;10.87;100.00
57068;BME280;43391;47.448;18.904;2023-05-12T07:37:06;99823.38;;;10.85;100.00
57068;BME280;43391;47.448;18.904;2023-05-12T07:39:32;99813.63;;;10.90;100.00
57068;BME280;43391;47.448;18.904;2023-05-12T07:41:58;99820.06;;;11.01;100.00
57068;BME280;43391;47.448;18.904;2023-05-12T07:44:23;99818.38;;;11.00;100.00
57068;BME280;43391;47.448;18.904;2023-05-12T07:46:49;99830.75;;;11.12;100.00
57068;BME280;43391;47.448;18.904;2023-05-12T07:49:14;99823.38;;;11.22;100.00
57068;BME280;43391;47.448;18.904;2023-05-12T07:51:40;99822.00;;;11.33;100.00
57068;BME280;43391;47.448;18.904;2023-05-12T07:54:05;99825.63;;;11.46;100.00
57068;BME280;43391;47.448;18.904;2023-05-12T07:56:31;99822.78;;;11.51;100.00
57068;BME280;43391;47.448;18.904;2023-05-12T07:58:57;99831.44;;;11.51;100.00
57068;BME280;43391;47.448;18.904;2023-05-12T08:01:23;99821.97;;;11.50;100.00
57068;BME280;43391;47.448;18.904;2023-05-12T08:03:49;99824.94;;;11.60;100.00
57068;BME280;43391;47.448;18.904;2023-05-12T08:06:15;99831.72;;;11.63;100.00
57068;BME280;43391;47.448;18.904;2023-05-12T08:08:41;99829.66;;;11.69;100.00
57068;BME280;43391;47.448;18.904;2023-05-12T08:11:06;99832.59;;;11.63;100.00
57068;BME280;43391;47.448;18.904;2023-05-12T08:13:31;99831.38;;;11.53;100.00
57068;BME280;43391;47.448;18.904;2023-05-12T08:15:57;99834.66;;;11.56;100.00
57068;BME280;43391;47.448;18.904;2023-05-12T08:18:22;99839.91;;;11.55;100.00
57068;BME280;43391;47.448;18.904;2023-05-12T08:20:48;99843.13;;;11.60;100.00
57068;BME280;43391;47.448;18.904;2023-05-12T08:23:15;99839.22;;;11.69;100.00
57068;BME280;43391;47.448;18.904;2023-05-12T08:25:41;99841.75;;;11.70;100.00
57068;BME280;43391;47.448;18.904;2023-05-12T08:28:09;99838.31;;;11.70;100.00
57068;BME280;43391;47.448;18.904;2023-05-12T08:30:35;99848.22;;;11.79;100.00
57068;BME280;43391;47.448;18.904;2023-05-12T08:33:01;99854.28;;;11.80;100.00
57068;BME280;43391;47.448;18.904;2023-05-12T08:35:27;99845.88;;;11.75;100.00
57068;BME280;43391;47.448;18.904;2023-05-12T08:37:52;99844.88;;;11.77;100.00
57068;BME280;43391;47.448;18.904;2023-05-12T08:40:22;99850.53;;;11.86;100.00
57068;BME280;43391;47.448;18.904;2023-05-12T08:45:27;99856.16;;;11.94;100.00
57068;BME280;43391;47.448;18.904;2023-05-12T08:47:53;99859.44;;;11.98;100.00
57068;BME280;43391;47.448;18.904;2023-05-12T08:50:21;99853.16;;;12.02;100.00
57068;BME280;43391;47.448;18.904;2023-05-12T08:52:47;99853.72;;;12.08;100.00
57068;BME280;43391;47.448;18.904;2023-05-12T08:55:13;99857.91;;;12.11;100.00
57068;BME280;43391;47.448;18.904;2023-05-12T08:57:39;99856.38;;;12.07;100.00
57068;BME280;43391;47.448;18.904;2023-05-12T09:00:10;99854.94;;;12.01;100.00
57068;BME280;43391;47.448;18.904;2023-05-12T09:02:38;99861.59;;;11.89;100.00
57068;BME280;43391;47.448;18.904;2023-05-12T09:05:04;99856.81;;;11.81;100.00
57068;BME280;43391;47.448;18.904;2023-05-12T09:07:30;99865.91;;;11.73;100.00
57068;BME280;43391;47.448;18.904;2023-05-12T09:09:57;99866.06;;;11.69;100.00
57068;BME280;43391;47.448;18.904;2023-05-12T09:12:24;99866.00;;;11.71;100.00
57068;BME280;43391;47.448;18.904;2023-05-12T09:14:59;99870.41;;;11.69;100.00
57068;BME280;43391;47.448;18.904;2023-05-12T09:17:27;99871.50;;;11.65;100.00
57068;BME280;43391;47.448;18.904;2023-05-12T09:19:52;99872.66;;;11.59;100.00
57068;BME280;43391;47.448;18.904;2023-05-12T09:22:27;99878.16;;;11.53;100.00
57068;BME280;43391;47.448;18.904;2023-05-12T09:24:52;99883.44;;;11.51;100.00
57068;BME280;43391;47.448;18.904;2023-05-12T09:27:26;99884.44;;;11.49;100.00
57068;BME280;43391;47.448;18.904;2023-05-12T09:29:52;99881.81;;;11.49;100.00
57068;BME280;43391;47.448;18.904;2023-05-12T09:32:17;99879.75;;;11.55;100.00
57068;BME280;43391;47.448;18.904;2023-05-12T09:34:43;99884.13;;;11.55;100.00
57068;BME280;43391;47.448;18.904;2023-05-12T09:37:08;99889.38;;;11.36;100.00
57068;BME280;43391;47.448;18.904;2023-05-12T09:39:34;99882.66;;;11.32;100.00
57068;BME280;43391;47.448;18.904;2023-05-12T09:42:00;99880.28;;;11.27;100.00
57068;BME280;43391;47.448;18.904;2023-05-12T09:44:26;99889.31;;;11.20;100.00
57068;BME280;43391;47.448;18.904;2023-05-12T09:46:54;99897.47;;;11.12;100.00
57068;BME280;43391;47.448;18.904;2023-05-12T09:49:22;99890.25;;;10.99;100.00
57068;BME280;43391;47.448;18.904;2023-05-12T09:51:59;99892.09;;;10.97;100.00
57068;BME280;43391;47.448;18.904;2023-05-12T09:54:26;99895.69;;;10.95;100.00
57068;BME280;43391;47.448;18.904;2023-05-12T09:56:56;99896.44;;;10.97;100.00
57068;BME280;43391;47.448;18.904;2023-05-12T09:59:23;99890.19;;;11.01;100.00
57068;BME280;43391;47.448;18.904;2023-05-12T10:01:51;99891.03;;;11.01;100.00
57068;BME280;43391;47.448;18.904;2023-05-12T10:04:17;99887.44;;;11.04;100.00
57068;BME280;43391;47.448;18.904;2023-05-12T10:06:43;99890.44;;;11.14;100.00
57068;BME280;43391;47.448;18.904;2023-05-12T10:11:46;99881.78;;;11.13;100.00
57068;BME280;43391;47.448;18.904;2023-05-12T10:14:12;99893.78;;;11.16;100.00
57068;BME280;43391;47.448;18.904;2023-05-12T10:16:39;99891.72;;;11.05;100.00
57068;BME280;43391;47.448;18.904;2023-05-12T10:19:05;99897.84;;;11.04;100.00
57068;BME280;43391;47.448;18.904;2023-05-12T10:21:31;99889.56;;;10.96;100.00
57068;BME280;43391;47.448;18.904;2023-05-12T10:23:57;99882.13;;;10.88;100.00
57068;BME280;43391;47.448;18.904;2023-05-12T10:26:23;99876.38;;;10.81;100.00
57068;BME280;43391;47.448;18.904;2023-05-12T10:28:50;99881.38;;;10.86;100.00
57068;BME280;43391;47.448;18.904;2023-05-12T10:31:16;99881.72;;;10.78;100.00
57068;BME280;43391;47.448;18.904;2023-05-12T10:33:42;99887.00;;;10.76;100.00
57068;BME280;43391;47.448;18.904;2023-05-12T10:36:17;99885.44;;;10.72;100.00
57068;BME280;43391;47.448;18.904;2023-05-12T10:38:46;99886.44;;;10.70;100.00
57068;BME280;43391;47.448;18.904;2023-05-12T10:41:13;99894.09;;;10.73;100.00
57068;BME280;43391;47.448;18.904;2023-05-12T10:43:43;99895.34;;;10.83;100.00
57068;BME280;43391;47.448;18.904;2023-05-12T10:48:56;99892.22;;;10.94;100.00
57068;BME280;43391;47.448;18.904;2023-05-12T10:51:27;99895.13;;;10.88;100.00
57068;BME280;43391;47.448;18.904;2023-05-12T10:59:10;99894.09;;;10.73;100.00
57068;BME280;43391;47.448;18.904;2023-05-12T11:01:37;99901.03;;;10.72;100.00
57068;BME280;43391;47.448;18.904;2023-05-12T11:04:13;99900.81;;;10.77;100.00
57068;BME280;43391;47.448;18.904;2023-05-12T11:06:40;99902.34;;;10.81;100.00
57068;BME280;43391;47.448;18.904;2023-05-12T11:09:05;99903.81;;;10.87;100.00
57068;BME280;43391;47.448;18.904;2023-05-12T11:11:31;99907.50;;;11.00;100.00
57068;BME280;43391;47.448;18.904;2023-05-12T11:13:57;99899.44;;;11.07;100.00
57068;BME280;43391;47.448;18.904;2023-05-12T11:16:23;99896.31;;;11.18;100.00
57068;BME280;43391;47.448;18.904;2023-05-12T11:19:02;99888.63;;;11.34;100.00
57068;BME280;43391;47.448;18.904;2023-05-12T11:21:29;99892.78;;;11.38;100.00
57068;BME280;43391;47.448;18.904;2023-05-12T11:23:56;99895.13;;;11.42;100.00
57068;BME280;43391;47.448;18.904;2023-05-12T11:26:21;99892.22;;;11.49;100.00
57068;BME280;43391;47.448;18.904;2023-05-12T11:28:47;99895.06;;;11.44;100.00
57068;BME280;43391;47.448;18.904;2023-05-12T11:31:17;99895.13;;;11.42;100.00
57068;BME280;43391;47.448;18.904;2023-05-12T11:33:43;99895.13;;;11.25;100.00
57068;BME280;43391;47.448;18.904;2023-05-12T11:36:09;99888.59;;;11.16;100.00
57068;BME280;43391;47.448;18.904;2023-05-12T11:38:35;99884.50;;;11.12;100.00
57068;BME280;43391;47.448;18.904;2023-05-12T11:41:00;99880.03;;;11.14;100.00
57068;BME280;43391;47.448;18.904;2023-05-12T11:43:27;99881.09;;;11.10;100.00
57068;BME280;43391;47.448;18.904;2023-05-12T11:45:52;99879.13;;;11.15;100.00
57068;BME280;43391;47.448;18.904;2023-05-12T11:48:19;99880.03;;;11.14;100.00
57068;BME280;43391;47.448;18.904;2023-05-12T11:50:48;99884.31;;;11.15;100.00
57068;BME280;43391;47.448;18.904;2023-05-12T11:53:15;99888.53;;;11.18;100.00
57068;BME280;43391;47.448;18.904;2023-05-12T11:55:53;99888.09;;;11.27;100.00
57068;BME280;43391;47.448;18.904;2023-05-12T11:58:23;99887.66;;;11.36;100.00
57068;BME280;43391;47.448;18.904;2023-05-12T12:00:55;99881.84;;;11.31;100.00
57068;BME280;43391;47.448;18.904;2023-05-12T12:03:22;99886.97;;;11.33;100.00
57068;BME280;43391;47.448;18.904;2023-05-12T12:06:01;99885.13;;;11.35;100.00
57068;BME280;43391;47.448;18.904;2023-05-12T12:08:27;99882.75;;;11.30;100.00
57068;BME280;43391;47.448;18.904;2023-05-12T12:10:52;99883.50;;;11.32;100.00
57068;BME280;43391;47.448;18.904;2023-05-12T12:13:19;99890.38;;;11.33;100.00
57068;BME280;43391;47.448;18.904;2023-05-12T12:15:45;99882.75;;;11.30;100.00
57068;BME280;43391;47.448;18.904;2023-05-12T12:18:11;99893.84;;;11.34;100.00
57068;BME280;43391;47.448;18.904;2023-05-12T12:20:36;99891.06;;;11.37;100.00
57068;BME280;43391;47.448;18.904;2023-05-12T12:23:01;99890.63;;;11.28;100.00
57068;BME280;43391;47.448;18.904;2023-05-12T12:25:27;99898.59;;;11.06;100.00
57068;BME280;43391;47.448;18.904;2023-05-12T12:27:52;99896.00;;;11.06;100.00
57068;BME280;43391;47.448;18.904;2023-05-12T12:30:18;99899.81;;;10.99;100.00
57068;BME280;43391;47.448;18.904;2023-05-12T12:32:43;99899.19;;;10.94;100.00
57068;BME280;43391;47.448;18.904;2023-05-12T12:35:09;99904.19;;;10.79;100.00
57068;BME280;43391;47.448;18.904;2023-05-12T12:37:35;99910.09;;;10.63;100.00
57068;BME280;43391;47.448;18.904;2023-05-12T12:40:01;99918.28;;;10.54;100.00
57068;BME280;43391;47.448;18.904;2023-05-12T12:42:35;99921.03;;;10.51;100.00
57068;BME280;43391;47.448;18.904;2023-05-12T12:45:04;99917.00;;;10.44;100.00
57068;BME280;43391;47.448;18.904;2023-05-12T12:47:30;99919.00;;;10.37;100.00
57068;BME280;43391;47.448;18.904;2023-05-12T12:49:56;99918.16;;;10.57;100.00
57068;BME280;43391;47.448;18.904;2023-05-12T12:52:21;99919.06;;;10.56;100.00